Time;durP1;ratioP1;P1;durP2;ratioP2;P2;SDS_P1;SDS_P2;PMS_P1;PMS_P2;Temp;Humidity;BMP_temperature;BMP_pressure;BME280_temperature;BME280_humidity;BME280_pressure;Samples;Min_cycle;Max_cycle;Signal;HPM_P1;HPM_P2
2022/03/12 00:01:26;;;;;;;13.57;9.53;;;;;;;-1.49;84.88;102528.31;5054022;28;20256;-68
2022/03/12 00:03:54;;;;;;;17.03;10.33;;;;;;;-1.46;85.69;102524.75;5054143;28;20072;-68
2022/03/12 00:06:22;;;;;;;16.37;9.37;;;;;;;-1.51;85.27;102510.97;5053276;28;20739;-68
2022/03/12 00:08:51;;;;;;;13.93;9.50;;;;;;;-1.53;85.59;102499.72;5053677;28;20623;-68
2022/03/12 00:11:19;;;;;;;16.52;12.32;;;;;;;-1.38;85.43;102512.34;5052688;28;20029;-67
2022/03/12 00:13:46;;;;;;;16.98;9.70;;;;;;;-1.39;85.00;102487.97;5053713;28;20044;-66
2022/03/12 00:16:15;;;;;;;17.33;10.57;;;;;;;-1.32;84.10;102486.03;5052492;28;20025;-69
2022/03/12 00:18:46;;;;;;;15.60;9.80;;;;;;;-1.01;84.40;102519.97;5052807;28;20674;-68
2022/03/12 00:21:13;;;;;;;14.87;10.77;;;;;;;-0.99;84.12;102519.03;5054084;28;20025;-70
2022/03/12 00:23:41;;;;;;;22.03;9.27;;;;;;;-1.21;83.65;102478.72;5054104;28;20311;-68
2022/03/12 00:26:07;;;;;;;12.82;8.95;;;;;;;-0.95;83.53;102517.19;5052917;28;20271;-67
2022/03/12 00:28:32;;;;;;;13.70;8.40;;;;;;;-1.17;83.14;102480.34;5054173;28;20086;-67
2022/03/12 00:30:58;;;;;;;13.40;10.63;;;;;;;-1.57;82.82;102403.13;5054007;28;20791;-67
2022/03/12 00:33:24;;;;;;;16.13;9.10;;;;;;;-1.62;83.65;102399.78;5053131;28;20025;-67
2022/03/12 00:35:51;;;;;;;19.93;11.70;;;;;;;-0.98;83.06;102499.81;5052394;28;20071;-69
2022/03/12 00:38:22;;;;;;;17.17;10.83;;;;;;;-0.83;83.46;102527.28;5053633;28;20106;-68
2022/03/12 00:40:49;;;;;;;17.40;10.40;;;;;;;-0.99;83.06;102490.25;5053562;28;20256;-67
2022/03/12 00:43:15;;;;;;;14.43;8.43;;;;;;;-0.84;82.54;102509.03;5053453;28;20255;-68
2022/03/12 00:45:41;;;;;;;12.53;8.07;;;;;;;-0.75;82.49;102527.91;5053335;28;20348;-67
2022/03/12 00:48:06;;;;;;;15.60;8.60;;;;;;;-0.72;82.62;102529.56;5053444;28;20754;-67
2022/03/12 00:50:33;;;;;;;10.57;8.77;;;;;;;-0.76;82.57;102525.34;5053576;28;20096;-68
2022/03/12 00:52:59;;;;;;;17.73;9.70;;;;;;;-0.87;82.46;102517.78;5052187;28;20478;-68
2022/03/12 00:55:25;;;;;;;14.43;9.67;;;;;;;-0.79;82.54;102523.69;5053102;28;20313;-66
2022/03/12 00:57:50;;;;;;;13.60;9.50;;;;;;;-0.73;82.66;102533.09;5053140;28;20607;-68
2022/03/12 01:00:19;;;;;;;14.97;10.27;;;;;;;-1.01;82.00;102486.00;5053185;28;20028;-69
2022/03/12 01:02:45;;;;;;;11.77;9.95;;;;;;;-0.83;82.37;102505.50;5052041;28;20029;-68
2022/03/12 01:05:17;;;;;;;17.17;9.57;;;;;;;-0.85;82.17;102502.94;5053176;28;20025;-67
2022/03/12 01:07:43;;;;;;;17.30;10.03;;;;;;;-0.85;82.15;102512.53;5053717;28;20295;-69
2022/03/12 01:10:09;;;;;;;13.67;9.17;;;;;;;-0.69;82.42;102548.63;5053130;28;20325;-67
2022/03/12 01:12:35;;;;;;;15.17;9.47;;;;;;;-0.68;82.21;102541.66;5054183;28;20191;-67
2022/03/12 01:15:01;;;;;;;14.63;9.63;;;;;;;-0.78;82.47;102524.53;5052860;28;20488;-67
2022/03/12 01:17:31;;;;;;;13.70;9.50;;;;;;;-0.80;82.81;102526.34;5052723;28;20260;-69
2022/03/12 01:19:56;;;;;;;14.93;10.20;;;;;;;-0.83;82.54;102523.81;5052699;28;20283;-69
2022/03/12 01:22:22;;;;;;;13.90;10.67;;;;;;;-0.85;82.56;102517.78;5052515;28;20434;-68
2022/03/12 01:24:48;;;;;;;13.23;9.50;;;;;;;-0.75;82.95;102534.91;5051117;28;20036;-66
2022/03/12 01:27:15;;;;;;;15.03;10.00;;;;;;;-0.76;82.22;102518.34;5052195;28;20481;-70
2022/03/12 01:29:45;;;;;;;16.33;9.83;;;;;;;-0.79;82.05;102526.28;5052046;28;20029;-68
2022/03/12 01:32:10;;;;;;;15.63;10.40;;;;;;;-0.79;82.83;102533.28;5052097;28;20260;-67
2022/03/12 01:34:36;;;;;;;12.10;9.07;;;;;;;-0.94;82.21;102513.66;5051947;28;20607;-68
2022/03/12 01:37:02;;;;;;;12.47;9.20;;;;;;;-0.90;82.23;102510.03;5052274;28;20025;-69
2022/03/12 01:39:28;;;;;;;13.00;9.07;;;;;;;-0.85;82.72;102517.78;5052159;28;20255;-67
2022/03/12 01:41:54;;;;;;;14.13;10.40;;;;;;;-0.83;82.75;102519.44;5051188;28;20117;-69
2022/03/12 01:44:21;;;;;;;12.70;9.17;;;;;;;-0.90;82.92;102506.56;5052834;28;20029;-68
2022/03/12 01:46:48;;;;;;;16.30;9.20;;;;;;;-0.76;82.46;102533.19;5052593;28;20287;-70
2022/03/12 01:49:22;;;;;;;13.40;9.20;;;;;;;-0.76;82.47;102530.56;5051933;28;20734;-67
2022/03/12 01:51:52;;;;;;;14.03;9.23;;;;;;;-0.77;82.69;102523.63;5050898;28;20614;-69
2022/03/12 01:54:20;;;;;;;15.63;9.10;;;;;;;-0.87;82.76;102516.94;5050577;28;20360;-68
2022/03/12 01:56:46;;;;;;;12.90;9.10;;;;;;;-0.85;82.62;102523.00;5051861;28;20256;-68
2022/03/12 01:59:12;;;;;;;19.07;10.10;;;;;;;-0.98;82.34;102502.44;5052312;28;20078;-68
2022/03/12 02:01:38;;;;;;;15.23;9.40;;;;;;;-1.02;82.39;102503.44;5052096;28;20028;-68
2022/03/12 02:04:06;;;;;;;15.83;9.77;;;;;;;-1.01;83.24;102518.22;5051779;28;20259;-70
2022/03/12 02:06:32;;;;;;;12.77;9.38;;;;;;;-1.10;83.48;102515.03;5052166;28;20053;-68
2022/03/12 02:08:58;;;;;;;14.30;9.63;;;;;;;-1.11;83.36;102529.88;5051703;28;20049;-69
2022/03/12 02:11:28;;;;;;;15.33;9.63;;;;;;;-1.75;83.56;102434.97;5052067;28;20025;-68
2022/03/12 02:14:13;;;;;;;16.23;9.90;;;;;;;-1.12;83.19;102543.84;5051957;28;20737;-69
2022/03/12 02:16:59;;;;;;;12.70;8.40;;;;;;;-1.41;83.31;102496.78;5051837;28;20299;-69
2022/03/12 02:19:26;;;;;;;14.80;9.93;;;;;;;-1.27;83.39;102532.06;5051461;28;20323;-68
2022/03/12 02:21:57;;;;;;;17.27;10.57;;;;;;;-1.21;84.65;102540.63;5051621;28;20299;-69
2022/03/12 02:24:26;;;;;;;15.33;10.10;;;;;;;-1.26;83.80;102532.91;5051898;28;20350;-66
2022/03/12 02:26:56;;;;;;;11.80;8.90;;;;;;;-1.17;83.69;102548.31;5051640;28;20390;-66
2022/03/12 02:29:23;;;;;;;14.27;8.97;;;;;;;-1.35;83.83;102526.19;5050363;28;20255;-68
2022/03/12 02:32:01;;;;;;;12.43;10.17;;;;;;;-1.25;84.41;102539.84;5051758;28;20259;-68
2022/03/12 02:34:36;;;;;;;16.88;9.90;;;;;;;-1.23;83.75;102556.34;5051640;28;20757;-68
2022/03/12 02:37:01;;;;;;;15.73;9.90;;;;;;;-1.40;83.79;102525.47;5051715;28;20071;-70
2022/03/12 02:39:27;;;;;;;13.47;9.20;;;;;;;-1.38;83.76;102531.50;5051837;28;20247;-69
2022/03/12 02:41:55;;;;;;;15.10;10.03;;;;;;;-1.60;84.01;102497.28;5050282;28;20071;-67
2022/03/12 02:44:26;;;;;;;14.20;9.67;;;;;;;-1.39;83.76;102534.16;5051517;28;20411;-69
2022/03/12 02:47:14;;;;;;;14.70;8.60;;;;;;;-1.31;83.98;102561.78;5051448;28;20287;-68
2022/03/12 02:50:04;;;;;;;11.70;9.10;;;;;;;-1.34;84.26;102555.81;5051676;28;20254;-68
2022/03/12 02:52:31;;;;;;;16.33;10.63;;;;;;;-1.48;84.01;102531.78;5051417;28;20271;-68
2022/03/12 02:55:00;;;;;;;17.37;11.33;;;;;;;-1.69;84.27;102507.97;5051356;28;20268;-69
2022/03/12 02:57:28;;;;;;;14.60;9.48;;;;;;;-1.51;84.57;102537.09;5051591;28;20703;-69
2022/03/12 02:59:55;;;;;;;18.73;11.17;;;;;;;-1.49;84.08;102541.38;5051555;28;20041;-68
2022/03/12 03:02:29;;;;;;;14.60;10.00;;;;;;;-1.54;84.76;102539.81;5051604;28;20248;-68
2022/03/12 03:04:54;;;;;;;18.03;11.60;;;;;;;-1.54;84.54;102558.09;5051545;28;20259;-68
2022/03/12 03:07:20;;;;;;;16.60;10.80;;;;;;;-1.70;84.89;102542.84;5051171;28;20333;-66
2022/03/12 03:09:46;;;;;;;15.10;11.23;;;;;;;-2.12;84.79;102476.91;5051292;28;20139;-69
2022/03/12 03:12:13;;;;;;;15.83;10.47;;;;;;;-1.77;84.89;102549.09;5051522;28;20516;-69
2022/03/12 03:14:43;;;;;;;17.40;10.70;;;;;;;-1.81;84.90;102538.78;5051452;28;20025;-68
2022/03/12 03:17:11;;;;;;;18.97;11.73;;;;;;;-1.76;85.41;102558.66;5051312;28;20309;-68
2022/03/12 03:19:38;;;;;;;15.48;10.10;;;;;;;-2.09;85.14;102497.72;5050206;28;20260;-68
2022/03/12 03:22:05;;;;;;;15.60;11.27;;;;;;;-1.96;85.27;102529.59;5050929;28;20040;-69
2022/03/12 03:24:31;;;;;;;16.37;9.57;;;;;;;-2.05;85.73;102530.66;5049758;28;20295;-67
2022/03/12 03:26:58;;;;;;;18.17;10.20;;;;;;;-1.89;85.32;102552.03;5051143;28;20377;-69
2022/03/12 03:29:26;;;;;;;14.83;9.83;;;;;;;-1.98;85.59;102542.69;5051248;28;20056;-69
2022/03/12 03:31:52;;;;;;;14.80;10.77;;;;;;;-1.97;85.82;102559.22;5054636;28;20295;-68
2022/03/12 03:34:18;;;;;;;16.43;10.97;;;;;;;-2.01;85.98;102555.84;5054613;28;20352;-67
2022/03/12 03:36:45;;;;;;;14.40;10.43;;;;;;;-2.11;85.94;102553.47;5054624;28;20750;-68
2022/03/12 03:39:11;;;;;;;17.03;11.70;;;;;;;-2.12;85.65;102541.31;5049206;28;20044;-68
2022/03/12 03:41:37;;;;;;;17.80;10.50;;;;;;;-2.14;86.05;102545.72;5042575;28;20263;-69
2022/03/12 03:44:05;;;;;;;18.03;10.53;;;;;;;-2.33;86.29;102516.59;5038957;28;20021;-68
2022/03/12 03:46:31;;;;;;;20.92;12.40;;;;;;;-2.14;85.79;102566.59;5046334;28;20029;-68
2022/03/12 03:48:56;;;;;;;16.10;12.07;;;;;;;-2.31;86.31;102540.91;5054386;28;20476;-68
2022/03/12 03:51:22;;;;;;;17.80;12.00;;;;;;;-2.28;86.60;102539.09;5054501;28;20107;-68
2022/03/12 03:53:48;;;;;;;17.77;12.73;;;;;;;-2.07;87.01;102562.94;5054879;28;20040;-67
2022/03/12 03:56:15;;;;;;;20.60;13.80;;;;;;;-2.03;87.03;102570.66;5054595;28;20518;-68
2022/03/12 03:58:41;;;;;;;19.57;11.67;;;;;;;-2.00;86.67;102567.13;5054509;28;20057;-68
2022/03/12 04:01:12;;;;;;;16.87;11.30;;;;;;;-2.00;86.21;102569.75;5054272;28;20774;-68
2022/03/12 04:03:42;;;;;;;18.60;12.20;;;;;;;-2.12;85.94;102554.38;5054119;28;20021;-67
2022/03/12 04:06:11;;;;;;;17.43;12.00;;;;;;;-2.33;85.94;102514.84;5053922;28;20075;-68
2022/03/12 04:08:37;;;;;;;17.57;12.20;;;;;;;-2.14;85.73;102562.22;5044218;28;20323;-69
2022/03/12 04:11:06;;;;;;;19.73;13.13;;;;;;;-2.27;85.93;102546.03;5042569;28;20275;-69
2022/03/12 04:13:33;;;;;;;17.70;11.30;;;;;;;-2.14;86.10;102574.44;5054022;28;20349;-69
2022/03/12 04:15:59;;;;;;;20.63;12.07;;;;;;;-2.12;86.17;102575.25;5054090;28;20029;-68
2022/03/12 04:18:25;;;;;;;16.83;12.07;;;;;;;-2.16;85.79;102573.59;5053945;28;20252;-69
2022/03/12 04:20:51;;;;;;;19.60;11.40;;;;;;;-2.27;86.15;102566.91;5053971;28;20164;-68
2022/03/12 04:23:21;;;;;;;18.20;12.00;;;;;;;-2.20;85.79;102581.50;5053973;28;20252;-67
2022/03/12 04:25:52;;;;;;;19.97;11.07;;;;;;;-2.21;85.55;102577.19;5053780;28;20267;-69
2022/03/12 04:28:43;;;;;;;21.23;13.23;;;;;;;-2.27;85.67;102566.91;5054069;28;20286;-68
2022/03/12 04:31:09;;;;;;;17.03;11.70;;;;;;;-2.23;85.68;102578.13;5053701;28;20037;-71
2022/03/12 04:33:35;;;;;;;18.93;12.20;;;;;;;-2.28;85.56;102574.78;5053588;28;20025;-69
2022/03/12 04:36:03;;;;;;;17.42;12.60;;;;;;;-2.34;85.66;102562.69;5053625;28;20029;-68
2022/03/12 04:38:28;;;;;;;18.33;11.88;;;;;;;-2.33;85.90;102567.03;5053378;28;20057;-69
2022/03/12 04:40:57;;;;;;;20.13;13.20;;;;;;;-2.42;85.58;102566.38;5053247;28;20057;-72
2022/03/12 04:43:25;;;;;;;20.02;11.68;;;;;;;-2.91;85.52;102471.84;5054055;28;20033;-74
2022/03/12 04:45:51;;;;;;;16.55;11.32;;;;;;;-2.43;85.84;102575.13;5051564;28;20114;-74
2022/03/12 04:48:20;;;;;;;17.90;11.93;;;;;;;-2.27;85.30;102587.78;5043512;28;20460;-72
2022/03/12 04:50:48;;;;;;;23.00;11.93;;;;;;;-2.20;85.73;102599.78;5053557;28;20052;-72
2022/03/12 04:53:15;;;;;;;19.23;12.75;;;;;;;-2.21;85.86;102602.44;5052151;28;20096;-69
2022/03/12 04:55:41;;;;;;;17.33;11.60;;;;;;;-2.28;85.38;102590.44;5050141;28;20017;-71
2022/03/12 04:58:07;;;;;;;18.20;12.10;;;;;;;-2.29;85.64;102586.97;5033844;28;20267;-75
2022/03/12 05:00:38;;;;;;;22.53;12.80;;;;;;;-2.20;85.08;102591.09;5033493;28;20033;-75
2022/03/12 05:03:23;;;;;;;20.63;13.10;;;;;;;-2.23;85.29;102581.59;5034137;28;20266;-72
2022/03/12 05:05:52;;;;;;;23.93;14.90;;;;;;;-2.10;85.07;102615.22;5035215;28;20276;-75
2022/03/12 05:08:19;;;;;;;;;;;;;;;-2.08;84.28;102596.00;5033795;28;20292;-70
2022/03/12 05:10:51;;;;;;;18.42;12.40;;;;;;;-2.15;84.36;102581.41;5032439;28;19955;-71
2022/03/12 05:13:27;;;;;;;16.23;11.60;;;;;;;-2.08;84.62;102595.16;5033234;28;20029;-73
2022/03/12 05:15:55;;;;;;;19.65;12.38;;;;;;;-1.95;84.52;102604.44;5033935;28;20315;-63
2022/03/12 05:18:22;;;;;;;12.38;9.50;;;;;;;-2.03;84.70;102590.69;5032836;28;20038;-68
2022/03/12 05:20:48;;;;;;;21.50;15.43;;;;;;;-1.99;84.51;102584.50;5032732;28;20056;-68
2022/03/12 05:23:14;;;;;;;21.77;12.47;;;;;;;-1.86;84.67;102609.41;5032937;28;20660;-68
2022/03/12 05:25:43;;;;;;;20.97;11.97;;;;;;;-1.78;85.21;102606.59;5031108;28;20028;-68
2022/03/12 05:28:17;;;;;;;22.67;12.50;;;;;;;-1.86;84.62;102583.28;5046305;28;20762;-73
2022/03/12 05:30:45;;;;;;;19.77;12.00;;;;;;;-1.74;84.89;102601.25;5052732;28;20041;-70
2022/03/12 05:33:11;;;;;;;26.02;14.35;;;;;;;-1.65;84.70;102601.03;5051054;28;20155;-70
2022/03/12 05:35:42;;;;;;;22.50;11.73;;;;;;;-1.88;84.42;102553.75;5035945;28;20028;-69
2022/03/12 05:38:11;;;;;;;18.90;11.80;;;;;;;-1.63;84.37;102595.78;5052787;28;20037;-69
2022/03/12 05:40:38;;;;;;;;;;;;;;;-1.46;84.15;102608.38;5053302;28;20465;-67
2022/03/12 05:43:09;;;;;;;22.37;13.83;;;;;;;-1.48;83.93;102599.72;5052574;28;19909;-70
2022/03/12 05:45:35;;;;;;;17.63;11.87;;;;;;;-1.50;83.84;102596.28;5053030;28;20305;-73
2022/03/12 05:48:01;;;;;;;18.50;13.50;;;;;;;-1.43;83.92;102597.88;5052519;28;20287;-70
2022/03/12 05:50:27;;;;;;;18.73;12.43;;;;;;;-1.90;83.74;102513.78;5052083;28;20341;-69
2022/03/12 05:52:53;;;;;;;23.73;14.43;;;;;;;-1.33;84.01;102621.09;5050978;28;20033;-71
2022/03/12 05:55:23;;;;;;;19.97;13.20;;;;;;;-1.35;84.20;102606.34;5052395;28;20120;-69
2022/03/12 05:57:49;;;;;;;18.50;12.27;;;;;;;-1.40;84.10;102597.78;5052832;28;20032;-72
2022/03/12 06:00:17;;;;;;;23.07;13.87;;;;;;;-1.23;83.94;102620.84;5052127;28;20267;-67
2022/03/12 06:02:52;;;;;;;20.30;13.67;;;;;;;-1.29;83.57;102607.03;5046714;28;20362;-72
2022/03/12 06:05:19;;;;;;;16.37;12.67;;;;;;;-1.18;84.02;102608.50;5045503;28;20775;-70
2022/03/12 06:07:46;;;;;;;21.87;12.87;;;;;;;-1.07;83.12;102619.53;5038087;28;20292;-70
2022/03/12 06:10:18;;;;;;;36.33;17.10;;;;;;;-1.02;82.82;102615.88;5032382;28;20271;-68
2022/03/12 06:12:45;;;;;;;20.17;12.80;;;;;;;-0.99;82.65;102617.56;5032253;28;20271;-75
2022/03/12 06:15:15;;;;;;;16.83;11.57;;;;;;;-1.02;83.07;102608.03;5032010;28;20724;-72
2022/03/12 06:17:41;;;;;;;19.27;12.13;;;;;;;-0.88;82.36;102625.09;5032070;28;20256;-72
2022/03/12 06:20:10;;;;;;;17.63;12.57;;;;;;;-0.83;82.56;102628.47;5030682;28;20263;-69
2022/03/12 06:22:36;;;;;;;23.90;12.45;;;;;;;-0.84;81.79;102626.75;5030759;28;20026;-70
2022/03/12 06:25:02;;;;;;;17.37;11.50;;;;;;;-0.77;82.18;102630.88;5030463;28;20083;-71
2022/03/12 06:27:28;;;;;;;23.90;13.77;;;;;;;-0.71;82.04;102628.09;5031702;28;20349;-69
2022/03/12 06:29:56;;;;;;;22.03;13.03;;;;;;;-0.98;81.65;102580.91;5031891;28;20552;-68
2022/03/12 06:32:23;;;;;;;14.17;10.60;;;;;;;-0.78;81.61;102613.47;5031548;28;20365;-70
2022/03/12 06:34:49;;;;;;;16.03;11.97;;;;;;;-0.78;81.82;102613.47;5031519;28;20758;-72
2022/03/12 06:37:14;;;;;;;14.27;10.83;;;;;;;-0.97;81.70;102574.75;5032263;28;20265;-71
2022/03/12 06:39:40;;;;;;;19.73;11.90;;;;;;;-0.91;81.35;102580.72;5043160;28;20267;-74
2022/03/12 06:42:06;;;;;;;18.77;11.30;;;;;;;-0.74;81.53;102596.78;5044875;28;20117;-73
2022/03/12 06:44:33;;;;;;;17.17;11.07;;;;;;;-0.53;81.19;102624.09;5037817;28;20080;-72
2022/03/12 06:47:00;;;;;;;15.37;10.93;;;;;;;-0.57;80.68;102607.63;5043025;28;20029;-70
2022/03/12 06:49:27;;;;;;;16.53;11.47;;;;;;;-0.46;80.25;102623.84;5042523;28;20275;-72
2022/03/12 06:51:53;;;;;;;16.13;11.20;;;;;;;-0.48;80.62;102638.75;5042518;28;20268;-72
2022/03/12 06:54:19;;;;;;;15.50;11.03;;;;;;;-0.72;81.10;102600.22;5028123;28;20279;-72
2022/03/12 06:56:45;;;;;;;15.77;12.07;;;;;;;-0.75;80.80;102588.06;5037723;28;20044;-67
2022/03/12 06:59:12;;;;;;;17.93;11.90;;;;;;;-0.46;80.66;102625.59;5035320;28;20276;-68
2022/03/12 07:01:37;;;;;;;20.87;14.33;;;;;;;-0.33;80.75;102633.03;5012735;28;20275;-68
2022/03/12 07:04:03;;;;;;;16.07;11.97;;;;;;;-0.17;80.05;102645.66;5048844;28;20256;-67
2022/03/12 07:06:33;;;;;;;19.40;11.90;;;;;;;-0.14;79.25;102637.69;5047622;28;20072;-68
2022/03/12 07:08:59;;;;;;;21.40;13.23;;;;;;;-0.14;79.49;102633.31;5045504;28;20037;-71
2022/03/12 07:11:25;;;;;;;14.50;11.53;;;;;;;-0.10;79.74;102634.06;5035790;28;20275;-69
2022/03/12 07:13:50;;;;;;;18.70;12.27;;;;;;;-0.17;79.54;102616.84;5035210;28;20029;-70
2022/03/12 07:16:16;;;;;;;19.13;13.33;;;;;;;-0.10;79.25;102634.94;5017479;28;20033;-72
2022/03/12 07:18:42;;;;;;;18.13;12.23;;;;;;;0.06;78.96;102635.31;5035091;28;20030;-71
2022/03/12 07:21:08;;;;;;;21.60;13.33;;;;;;;0.09;78.53;102624.72;5034971;28;20276;-75
2022/03/12 07:23:34;;;;;;;19.97;11.93;;;;;;;0.08;78.67;102617.78;5035078;28;20029;-71
2022/03/12 07:26:00;;;;;;;16.03;12.03;;;;;;;0.04;78.17;102605.69;5053365;28;20305;-70
2022/03/12 07:28:27;;;;;;;20.10;13.50;;;;;;;0.15;78.02;102619.28;5053640;28;20056;-73
2022/03/12 07:30:53;;;;;;;18.83;13.10;;;;;;;0.12;78.01;102608.91;5044504;28;20268;-71
2022/03/12 07:33:19;;;;;;;22.83;13.33;;;;;;;0.33;78.24;102622.22;5033546;28;20770;-71
2022/03/12 07:35:45;;;;;;;21.53;14.67;;;;;;;0.32;77.65;102625.75;5039736;28;20294;-70
2022/03/12 07:38:12;;;;;;;18.20;12.80;;;;;;;0.40;77.34;102639.44;5054539;28;20108;-71
2022/03/12 07:40:37;;;;;;;21.50;13.40;;;;;;;0.46;77.17;102641.84;5057004;28;20343;-69
2022/03/12 07:43:03;;;;;;;26.93;12.57;;;;;;;0.52;77.12;102645.13;5062350;28;20317;-70
2022/03/12 07:45:29;;;;;;;25.87;13.63;;;;;;;0.58;77.00;102662.44;5045191;28;20021;-73
2022/03/12 07:47:55;;;;;;;25.50;15.50;;;;;;;0.60;76.80;102658.00;5061851;28;20032;-71
2022/03/12 07:50:21;;;;;;;19.40;12.30;;;;;;;0.38;76.97;102613.28;5062881;28;20021;-70
2022/03/12 07:52:47;;;;;;;23.00;13.20;;;;;;;0.75;76.51;102661.84;5060486;28;20259;-73
2022/03/12 07:55:13;;;;;;;19.53;12.20;;;;;;;0.81;76.17;102672.09;5054987;28;20619;-71
2022/03/12 07:57:41;;;;;;;21.70;13.70;;;;;;;0.77;76.08;102654.75;5053212;28;20248;-71
2022/03/12 08:00:09;;;;;;;18.43;12.30;;;;;;;0.96;75.79;102665.47;5036609;28;20029;-72
2022/03/12 08:02:35;;;;;;;27.00;11.93;;;;;;;1.02;75.92;102654.75;5055269;28;20805;-72
2022/03/12 08:05:05;;;;;;;19.83;12.70;;;;;;;1.09;75.51;102651.84;5053777;28;20040;-71
2022/03/12 08:07:33;;;;;;;20.50;12.53;;;;;;;1.17;74.83;102654.22;5053669;28;20728;-72
2022/03/12 08:09:59;;;;;;;23.40;12.30;;;;;;;1.24;74.98;102661.81;5053676;28;20785;-72
2022/03/12 08:12:29;;;;;;;18.73;11.57;;;;;;;1.18;74.35;102653.31;5037032;28;20263;-73
2022/03/12 08:14:55;;;;;;;19.97;10.53;;;;;;;1.05;74.63;102633.66;5053448;28;20421;-74
2022/03/12 08:17:20;;;;;;;21.63;11.17;;;;;;;1.37;74.25;102667.44;5054095;28;20302;-70
2022/03/12 08:19:47;;;;;;;18.87;11.17;;;;;;;1.33;74.12;102649.25;5036626;28;20090;-71
2022/03/12 08:22:13;;;;;;;17.23;12.17;;;;;;;1.35;73.78;102656.16;5054183;28;20071;-71
2022/03/12 08:24:39;;;;;;;19.50;11.40;;;;;;;1.37;73.95;102662.19;5036145;28;20263;-73
2022/03/12 08:27:05;;;;;;;27.47;13.77;;;;;;;1.44;74.54;102668.91;5031489;28;20280;-71
2022/03/12 08:29:31;;;;;;;21.03;12.47;;;;;;;1.51;74.17;102659.94;5041006;28;20256;-70
2022/03/12 08:31:57;;;;;;;25.87;13.50;;;;;;;1.65;73.81;102666.41;5053880;28;20263;-71
2022/03/12 08:34:23;;;;;;;18.43;11.57;;;;;;;1.71;73.00;102653.03;5044016;28;20041;-70
2022/03/12 08:36:49;;;;;;;15.80;10.57;;;;;;;1.68;73.09;102634.78;5033632;28;20030;-71
2022/03/12 08:39:16;;;;;;;22.97;13.03;;;;;;;1.91;72.75;102671.50;5035179;28;20112;-75
2022/03/12 08:41:43;;;;;;;24.40;15.47;;;;;;;1.95;72.51;102667.84;5034790;28;20063;-70
2022/03/12 08:44:09;;;;;;;20.90;11.40;;;;;;;1.83;72.33;102644.69;5037363;28;20265;-73
2022/03/12 08:46:35;;;;;;;20.67;11.60;;;;;;;2.01;72.20;102664.97;5032802;28;20367;-73
2022/03/12 08:49:02;;;;;;;18.07;11.00;;;;;;;1.74;71.86;102608.28;5033478;28;20260;-71
2022/03/12 08:51:30;;;;;;;16.07;10.57;;;;;;;2.08;72.09;102655.94;5032762;28;20656;-78
2022/03/12 08:53:56;;;;;;;16.60;11.30;;;;;;;2.16;71.50;102664.38;5033242;28;20805;-71
2022/03/12 08:56:21;;;;;;;17.33;11.03;;;;;;;2.21;71.93;102669.44;5043204;28;20264;-71
2022/03/12 08:58:47;;;;;;;20.73;10.77;;;;;;;2.14;71.30;102645.19;5054448;28;20415;-74
2022/03/12 09:01:15;;;;;;;18.63;11.80;;;;;;;2.29;71.35;102669.09;5035701;28;20092;-67
2022/03/12 09:03:41;;;;;;;12.35;10.57;;;;;;;2.34;71.15;102664.53;5053891;28;20052;-70
2022/03/12 09:06:08;;;;;;;15.03;10.63;;;;;;;2.26;70.94;102640.31;5052637;28;20484;-75
2022/03/12 09:11:49;;;;;;;23.03;11.60;;;;;;;2.58;70.38;102671.38;5100856;27;1536280;-69
2022/03/12 09:14:15;;;;;;;14.20;9.97;;;;;;;2.56;70.32;102662.72;5130882;28;20076;-65
2022/03/12 09:16:41;;;;;;;20.93;10.97;;;;;;;2.52;70.40;102655.88;5130509;27;20269;-69
2022/03/12 09:19:08;;;;;;;17.43;10.93;;;;;;;2.46;70.16;102630.69;5129090;28;20048;-69
2022/03/12 09:21:35;;;;;;;21.20;12.07;;;;;;;2.52;70.29;102647.13;5132972;28;20106;-75
2022/03/12 09:24:03;;;;;;;22.33;11.03;;;;;;;2.65;70.23;102666.75;5129553;28;20260;-69
2022/03/12 09:26:28;;;;;;;16.58;11.73;;;;;;;2.57;70.16;102663.56;5130230;27;20261;-68
2022/03/12 09:28:54;;;;;;;17.30;11.20;;;;;;;2.56;70.23;102646.94;5129892;27;20024;-69
2022/03/12 09:31:21;;;;;;;16.23;11.67;;;;;;;2.59;70.01;102654.69;5129395;28;20155;-68
2022/03/12 09:33:46;;;;;;;17.97;11.03;;;;;;;2.74;69.74;102672.47;5130245;27;20126;-69
2022/03/12 09:36:13;;;;;;;21.87;11.77;;;;;;;2.82;69.63;102674.75;5129166;28;20281;-66
2022/03/12 09:38:39;;;;;;;18.57;11.43;;;;;;;2.77;69.64;102659.16;5111700;28;20322;-68
2022/03/12 09:41:05;;;;;;;24.87;11.53;;;;;;;2.85;69.63;102668.50;5129899;27;20039;-68
2022/03/12 09:43:30;;;;;;;19.60;11.77;;;;;;;2.88;69.01;102673.63;5111674;28;20267;-67
2022/03/12 09:45:57;;;;;;;17.00;10.87;;;;;;;2.99;69.25;102681.94;5130274;27;20034;-70
2022/03/12 09:48:22;;;;;;;17.60;10.83;;;;;;;3.01;69.36;102677.47;5129915;27;20031;-68
2022/03/12 09:50:49;;;;;;;19.23;10.00;;;;;;;3.13;68.52;102679.53;5129714;27;20277;-70
2022/03/12 09:53:15;;;;;;;19.87;10.90;;;;;;;3.26;68.18;102691.25;5121564;28;20031;-72
2022/03/12 09:55:40;;;;;;;17.23;11.27;;;;;;;3.19;68.26;102660.00;5126679;28;20253;-67
2022/03/12 09:58:06;;;;;;;17.00;9.50;;;;;;;3.25;68.13;102651.81;5122462;28;20122;-68
2022/03/12 10:00:32;;;;;;;19.13;10.53;;;;;;;3.58;67.80;102675.75;5129366;27;20035;-71
2022/03/12 10:02:58;;;;;;;18.83;10.50;;;;;;;3.63;67.01;102674.63;5129702;27;20023;-71
2022/03/12 10:05:24;;;;;;;17.23;11.07;;;;;;;3.68;67.08;102680.53;5129164;27;20042;-66
2022/03/12 10:07:49;;;;;;;24.67;10.97;;;;;;;3.79;66.48;102668.66;5125260;28;20293;-67
2022/03/12 10:10:21;;;;;;;18.63;10.17;;;;;;;3.89;66.44;102678.69;5126276;27;20510;-67
2022/03/12 10:12:47;;;;;;;19.17;9.73;;;;;;;3.91;66.30;102673.34;5128829;27;20058;-68
2022/03/12 10:15:17;;;;;;;21.30;11.67;;;;;;;3.98;67.03;102686.13;5125609;28;20740;-63
2022/03/12 10:17:44;;;;;;;24.43;14.10;;;;;;;4.06;66.75;102692.84;5123178;28;20034;-63
2022/03/12 10:20:11;;;;;;;13.53;9.80;;;;;;;4.03;66.33;102685.91;5120509;28;20280;-72
2022/03/12 10:22:40;;;;;;;23.00;10.73;;;;;;;3.97;66.20;102689.69;5114391;27;20700;-68
2022/03/12 10:25:07;;;;;;;18.50;10.07;;;;;;;3.89;66.47;102689.22;5108137;28;20746;-79
2022/03/12 10:27:33;;;;;;;20.23;11.17;;;;;;;3.94;66.11;102683.72;5108743;28;20285;-70
2022/03/12 10:30:00;;;;;;;27.73;11.87;;;;;;;3.92;65.92;102670.63;5113445;28;20310;-69
2022/03/12 10:32:29;;;;;;;19.83;11.53;;;;;;;3.96;66.38;102680.09;5102368;28;20719;-66
2022/03/12 10:34:59;;;;;;;36.83;10.73;;;;;;;3.97;66.08;102684.44;5109283;28;20330;-66
2022/03/12 10:37:30;;;;;;;17.43;9.43;;;;;;;4.06;65.76;102687.56;5113672;28;20724;-71
2022/03/12 10:40:03;;;;;;;18.27;9.87;;;;;;;4.11;65.85;102675.03;5114500;28;20267;-69
2022/03/12 10:42:31;;;;;;;14.80;8.70;;;;;;;4.18;65.36;102679.06;5114652;28;20262;-71
2022/03/12 10:45:05;;;;;;;18.10;8.73;;;;;;;4.20;65.26;102680.69;5114600;28;20262;-73
2022/03/12 10:47:36;;;;;;;15.33;9.80;;;;;;;4.38;64.18;102701.84;5113639;28;20258;-73
2022/03/12 10:50:06;;;;;;;13.63;8.90;;;;;;;4.31;64.64;102694.19;5114346;28;20281;-65
2022/03/12 10:52:34;;;;;;;14.33;8.90;;;;;;;4.37;64.17;102692.22;5114449;27;20556;-66
2022/03/12 10:55:09;;;;;;;23.10;12.97;;;;;;;4.40;64.09;102708.75;5113793;28;20254;-65
2022/03/12 10:57:34;;;;;;;13.60;8.83;;;;;;;4.12;65.04;102655.63;5114715;28;20284;-62
2022/03/12 11:00:01;;;;;;;15.30;9.47;;;;;;;4.41;64.71;102710.44;5114519;28;20674;-62
2022/03/12 11:02:27;;;;;;;12.73;9.73;;;;;;;4.35;64.69;102690.50;5105147;28;20118;-64
2022/03/12 11:04:52;;;;;;;14.07;8.50;;;;;;;4.33;64.52;102686.22;5098059;28;20352;-66
2022/03/12 11:07:25;;;;;;;23.40;9.90;;;;;;;4.41;64.16;102684.06;5114404;27;20355;-65
2022/03/12 11:09:53;;;;;;;19.07;10.37;;;;;;;4.52;64.61;102692.28;5105654;28;20055;-66
2022/03/12 11:12:29;;;;;;;15.83;10.13;;;;;;;4.47;63.99;102694.31;5093824;28;20293;-64
2022/03/12 11:15:05;;;;;;;20.90;11.63;;;;;;;4.45;64.49;102677.72;5093742;28;20270;-63
2022/03/12 11:17:43;;;;;;;21.27;9.33;;;;;;;4.27;64.60;102631.97;5111665;28;20612;-63
2022/03/12 11:20:19;;;;;;;25.38;9.90;;;;;;;4.62;63.98;102671.56;5114196;27;20258;-63